sensor_id;sensor_type;location;lat;lon;timestamp;P1;durP1;ratioP1;P2;durP2;ratioP2
22660;SDS011;11497;52.222;21.246;2023-06-26T00:01:46;23.15;;;13.38;;
22660;SDS011;11497;52.222;21.246;2023-06-26T00:04:14;26.10;;;13.50;;
22660;SDS011;11497;52.222;21.246;2023-06-26T00:06:42;26.52;;;14.63;;
22660;SDS011;11497;52.222;21.246;2023-06-26T00:09:10;22.27;;;13.75;;
22660;SDS011;11497;52.222;21.246;2023-06-26T00:11:39;22.85;;;14.50;;
22660;SDS011;11497;52.222;21.246;2023-06-26T00:14:06;23.38;;;15.10;;
22660;SDS011;11497;52.222;21.246;2023-06-26T00:16:34;19.65;;;14.23;;
22660;SDS011;11497;52.222;21.246;2023-06-26T00:19:02;23.95;;;14.77;;
22660;SDS011;11497;52.222;21.246;2023-06-26T00:21:30;25.13;;;15.27;;
22660;SDS011;11497;52.222;21.246;2023-06-26T00:23:58;25.48;;;14.98;;
22660;SDS011;11497;52.222;21.246;2023-06-26T00:26:26;20.50;;;14.68;;
22660;SDS011;11497;52.222;21.246;2023-06-26T00:28:53;27.85;;;14.60;;
22660;SDS011;11497;52.222;21.246;2023-06-26T00:31:21;20.42;;;14.25;;
22660;SDS011;11497;52.222;21.246;2023-06-26T00:33:49;26.13;;;15.05;;
22660;SDS011;11497;52.222;21.246;2023-06-26T00:36:17;23.45;;;14.45;;
22660;SDS011;11497;52.222;21.246;2023-06-26T00:38:45;21.80;;;14.75;;
22660;SDS011;11497;52.222;21.246;2023-06-26T00:41:13;26.48;;;14.48;;
22660;SDS011;11497;52.222;21.246;2023-06-26T00:43:40;20.77;;;14.02;;
22660;SDS011;11497;52.222;21.246;2023-06-26T00:46:10;26.13;;;15.43;;
22660;SDS011;11497;52.222;21.246;2023-06-26T00:48:41;22.58;;;14.15;;
22660;SDS011;11497;52.222;21.246;2023-06-26T00:51:12;23.52;;;14.90;;
22660;SDS011;11497;52.222;21.246;2023-06-26T00:53:41;21.73;;;14.90;;
22660;SDS011;11497;52.222;21.246;2023-06-26T00:56:10;27.70;;;15.27;;
22660;SDS011;11497;52.222;21.246;2023-06-26T00:58:38;25.85;;;15.00;;
22660;SDS011;11497;52.222;21.246;2023-06-26T01:01:06;25.27;;;15.35;;
22660;SDS011;11497;52.222;21.246;2023-06-26T01:03:35;21.42;;;13.90;;
22660;SDS011;11497;52.222;21.246;2023-06-26T01:06:07;19.25;;;13.75;;
22660;SDS011;11497;52.222;21.246;2023-06-26T01:08:38;20.88;;;14.43;;
22660;SDS011;11497;52.222;21.246;2023-06-26T01:11:08;19.10;;;13.93;;
22660;SDS011;11497;52.222;21.246;2023-06-26T01:13:35;23.77;;;14.10;;
22660;SDS011;11497;52.222;21.246;2023-06-26T01:16:05;22.27;;;14.38;;
22660;SDS011;11497;52.222;21.246;2023-06-26T01:18:33;21.15;;;14.15;;
22660;SDS011;11497;52.222;21.246;2023-06-26T01:21:03;21.20;;;14.23;;
22660;SDS011;11497;52.222;21.246;2023-06-26T01:23:35;19.40;;;14.45;;
22660;SDS011;11497;52.222;21.246;2023-06-26T01:28:49;22.05;;;13.55;;
22660;SDS011;11497;52.222;21.246;2023-06-26T01:31:19;21.15;;;14.75;;
22660;SDS011;11497;52.222;21.246;2023-06-26T01:33:47;20.00;;;13.95;;
22660;SDS011;11497;52.222;21.246;2023-06-26T01:36:19;21.02;;;14.00;;
22660;SDS011;11497;52.222;21.246;2023-06-26T01:38:47;23.13;;;14.05;;
22660;SDS011;11497;52.222;21.246;2023-06-26T01:41:16;22.35;;;14.43;;
22660;SDS011;11497;52.222;21.246;2023-06-26T01:49:31;23.25;;;14.38;;
22660;SDS011;11497;52.222;21.246;2023-06-26T01:52:07;27.10;;;13.93;;
22660;SDS011;11497;52.222;21.246;2023-06-26T01:57:36;20.17;;;13.65;;
22660;SDS011;11497;52.222;21.246;2023-06-26T02:00:06;23.40;;;13.75;;
22660;SDS011;11497;52.222;21.246;2023-06-26T02:05:08;22.50;;;13.18;;
22660;SDS011;11497;52.222;21.246;2023-06-26T02:07:36;21.95;;;13.98;;
22660;SDS011;11497;52.222;21.246;2023-06-26T02:10:04;23.45;;;14.23;;
22660;SDS011;11497;52.222;21.246;2023-06-26T02:12:34;22.80;;;14.10;;
22660;SDS011;11497;52.222;21.246;2023-06-26T02:15:02;19.92;;;13.48;;
22660;SDS011;11497;52.222;21.246;2023-06-26T02:17:33;25.30;;;14.35;;
22660;SDS011;11497;52.222;21.246;2023-06-26T02:20:01;22.85;;;14.23;;
22660;SDS011;11497;52.222;21.246;2023-06-26T02:22:29;25.92;;;14.55;;
22660;SDS011;11497;52.222;21.246;2023-06-26T02:24:56;23.20;;;15.02;;
22660;SDS011;11497;52.222;21.246;2023-06-26T02:27:25;22.08;;;14.45;;
22660;SDS011;11497;52.222;21.246;2023-06-26T02:29:52;21.15;;;14.07;;
22660;SDS011;11497;52.222;21.246;2023-06-26T02:32:20;19.38;;;13.68;;
22660;SDS011;11497;52.222;21.246;2023-06-26T02:34:49;19.65;;;13.52;;
22660;SDS011;11497;52.222;21.246;2023-06-26T02:37:20;27.05;;;13.80;;
22660;SDS011;11497;52.222;21.246;2023-06-26T02:39:48;21.52;;;13.32;;
22660;SDS011;11497;52.222;21.246;2023-06-26T02:42:16;19.70;;;13.70;;
22660;SDS011;11497;52.222;21.246;2023-06-26T02:44:44;20.25;;;13.63;;
22660;SDS011;11497;52.222;21.246;2023-06-26T02:47:12;19.05;;;13.45;;
22660;SDS011;11497;52.222;21.246;2023-06-26T02:49:42;20.55;;;13.23;;
22660;SDS011;11497;52.222;21.246;2023-06-26T02:52:10;23.15;;;13.45;;
22660;SDS011;11497;52.222;21.246;2023-06-26T02:54:38;19.20;;;13.57;;
22660;SDS011;11497;52.222;21.246;2023-06-26T02:57:06;20.90;;;13.85;;
22660;SDS011;11497;52.222;21.246;2023-06-26T02:59:34;23.30;;;13.98;;
22660;SDS011;11497;52.222;21.246;2023-06-26T03:02:02;22.13;;;13.93;;
22660;SDS011;11497;52.222;21.246;2023-06-26T03:04:36;25.85;;;14.18;;
22660;SDS011;11497;52.222;21.246;2023-06-26T03:07:07;21.42;;;13.88;;
22660;SDS011;11497;52.222;21.246;2023-06-26T03:09:37;22.77;;;14.20;;
22660;SDS011;11497;52.222;21.246;2023-06-26T03:12:05;20.20;;;13.73;;
22660;SDS011;11497;52.222;21.246;2023-06-26T03:14:33;19.70;;;13.70;;
22660;SDS011;11497;52.222;21.246;2023-06-26T03:17:01;21.58;;;13.80;;
22660;SDS011;11497;52.222;21.246;2023-06-26T03:19:32;21.20;;;14.50;;
22660;SDS011;11497;52.222;21.246;2023-06-26T03:22:15;20.65;;;14.60;;
22660;SDS011;11497;52.222;21.246;2023-06-26T03:24:43;25.33;;;14.80;;
22660;SDS011;11497;52.222;21.246;2023-06-26T03:27:13;20.98;;;14.77;;
22660;SDS011;11497;52.222;21.246;2023-06-26T03:29:44;19.85;;;14.77;;
22660;SDS011;11497;52.222;21.246;2023-06-26T03:32:13;21.55;;;14.60;;
22660;SDS011;11497;52.222;21.246;2023-06-26T03:34:41;23.90;;;15.52;;
22660;SDS011;11497;52.222;21.246;2023-06-26T03:37:09;24.67;;;15.38;;
22660;SDS011;11497;52.222;21.246;2023-06-26T03:39:37;20.38;;;14.75;;
22660;SDS011;11497;52.222;21.246;2023-06-26T03:42:05;23.25;;;15.45;;
22660;SDS011;11497;52.222;21.246;2023-06-26T03:44:33;25.52;;;15.63;;
22660;SDS011;11497;52.222;21.246;2023-06-26T03:47:01;22.73;;;15.27;;
22660;SDS011;11497;52.222;21.246;2023-06-26T03:49:29;24.33;;;15.98;;
22660;SDS011;11497;52.222;21.246;2023-06-26T03:51:57;19.42;;;14.63;;
22660;SDS011;11497;52.222;21.246;2023-06-26T03:54:25;24.52;;;16.20;;
22660;SDS011;11497;52.222;21.246;2023-06-26T03:56:53;25.80;;;15.63;;
22660;SDS011;11497;52.222;21.246;2023-06-26T03:59:20;22.38;;;15.18;;
22660;SDS011;11497;52.222;21.246;2023-06-26T04:01:49;26.27;;;15.90;;
22660;SDS011;11497;52.222;21.246;2023-06-26T04:04:19;22.95;;;15.38;;
22660;SDS011;11497;52.222;21.246;2023-06-26T04:06:47;25.77;;;15.52;;
22660;SDS011;11497;52.222;21.246;2023-06-26T04:09:15;23.02;;;15.00;;
22660;SDS011;11497;52.222;21.246;2023-06-26T04:11:44;20.85;;;14.48;;
22660;SDS011;11497;52.222;21.246;2023-06-26T04:14:11;25.42;;;15.43;;
22660;SDS011;11497;52.222;21.246;2023-06-26T04:16:39;30.25;;;16.48;;
22660;SDS011;11497;52.222;21.246;2023-06-26T04:19:07;23.23;;;15.98;;
22660;SDS011;11497;52.222;21.246;2023-06-26T04:21:36;23.50;;;15.70;;
22660;SDS011;11497;52.222;21.246;2023-06-26T04:24:05;25.17;;;15.98;;
22660;SDS011;11497;52.222;21.246;2023-06-26T04:26:33;20.63;;;14.73;;
22660;SDS011;11497;52.222;21.246;2023-06-26T04:29:00;19.17;;;14.75;;
22660;SDS011;11497;52.222;21.246;2023-06-26T04:31:28;20.55;;;14.90;;
22660;SDS011;11497;52.222;21.246;2023-06-26T04:33:56;21.55;;;14.82;;
22660;SDS011;11497;52.222;21.246;2023-06-26T04:36:26;22.50;;;14.48;;
22660;SDS011;11497;52.222;21.246;2023-06-26T04:38:55;20.42;;;14.80;;
22660;SDS011;11497;52.222;21.246;2023-06-26T04:41:23;21.02;;;15.43;;
22660;SDS011;11497;52.222;21.246;2023-06-26T04:43:51;22.10;;;15.30;;
22660;SDS011;11497;52.222;21.246;2023-06-26T04:46:19;20.05;;;15.45;;
22660;SDS011;11497;52.222;21.246;2023-06-26T04:48:46;25.02;;;15.60;;
22660;SDS011;11497;52.222;21.246;2023-06-26T04:51:14;20.38;;;14.88;;
22660;SDS011;11497;52.222;21.246;2023-06-26T04:53:42;20.70;;;14.65;;
22660;SDS011;11497;52.222;21.246;2023-06-26T04:56:10;23.15;;;14.05;;
22660;SDS011;11497;52.222;21.246;2023-06-26T04:58:38;19.05;;;14.20;;
22660;SDS011;11497;52.222;21.246;2023-06-26T05:01:06;23.80;;;13.43;;
22660;SDS011;11497;52.222;21.246;2023-06-26T05:03:34;18.52;;;13.30;;
22660;SDS011;11497;52.222;21.246;2023-06-26T05:06:03;21.58;;;13.70;;
22660;SDS011;11497;52.222;21.246;2023-06-26T05:08:35;18.58;;;13.10;;
22660;SDS011;11497;52.222;21.246;2023-06-26T05:11:03;17.77;;;12.15;;
22660;SDS011;11497;52.222;21.246;2023-06-26T05:13:31;20.20;;;12.73;;
22660;SDS011;11497;52.222;21.246;2023-06-26T05:15:58;16.63;;;11.57;;
22660;SDS011;11497;52.222;21.246;2023-06-26T05:18:26;18.83;;;12.13;;
22660;SDS011;11497;52.222;21.246;2023-06-26T05:20:54;18.27;;;13.55;;
22660;SDS011;11497;52.222;21.246;2023-06-26T05:23:22;27.55;;;15.68;;
22660;SDS011;11497;52.222;21.246;2023-06-26T05:25:53;18.33;;;13.40;;
22660;SDS011;11497;52.222;21.246;2023-06-26T05:28:21;21.30;;;13.82;;
22660;SDS011;11497;52.222;21.246;2023-06-26T05:30:51;23.10;;;15.10;;
22660;SDS011;11497;52.222;21.246;2023-06-26T05:33:19;21.00;;;14.60;;
22660;SDS011;11497;52.222;21.246;2023-06-26T05:35:53;17.25;;;12.90;;
22660;SDS011;11497;52.222;21.246;2023-06-26T05:38:21;18.00;;;12.95;;
22660;SDS011;11497;52.222;21.246;2023-06-26T05:40:50;15.50;;;11.68;;
22660;SDS011;11497;52.222;21.246;2023-06-26T05:43:18;20.08;;;12.18;;
22660;SDS011;11497;52.222;21.246;2023-06-26T05:45:53;20.05;;;11.50;;
22660;SDS011;11497;52.222;21.246;2023-06-26T05:48:21;16.05;;;11.30;;
22660;SDS011;11497;52.222;21.246;2023-06-26T05:50:49;18.02;;;10.65;;
22660;SDS011;11497;52.222;21.246;2023-06-26T05:53:17;18.60;;;12.07;;
22660;SDS011;11497;52.222;21.246;2023-06-26T05:55:45;15.05;;;11.15;;
22660;SDS011;11497;52.222;21.246;2023-06-26T05:58:13;14.95;;;10.60;;
22660;SDS011;11497;52.222;21.246;2023-06-26T06:00:43;14.32;;;10.77;;
22660;SDS011;11497;52.222;21.246;2023-06-26T06:03:11;19.60;;;9.52;;
22660;SDS011;11497;52.222;21.246;2023-06-26T06:05:39;15.30;;;10.90;;
22660;SDS011;11497;52.222;21.246;2023-06-26T06:08:06;14.13;;;10.60;;
22660;SDS011;11497;52.222;21.246;2023-06-26T06:10:35;24.73;;;11.32;;
22660;SDS011;11497;52.222;21.246;2023-06-26T06:13:03;14.23;;;9.73;;
22660;SDS011;11497;52.222;21.246;2023-06-26T06:15:31;14.77;;;10.45;;
22660;SDS011;11497;52.222;21.246;2023-06-26T06:17:58;17.17;;;9.48;;
22660;SDS011;11497;52.222;21.246;2023-06-26T06:20:27;14.82;;;10.27;;
22660;SDS011;11497;52.222;21.246;2023-06-26T06:22:54;14.88;;;9.68;;
22660;SDS011;11497;52.222;21.246;2023-06-26T06:25:22;13.27;;;8.82;;
22660;SDS011;11497;52.222;21.246;2023-06-26T06:27:50;11.82;;;8.07;;
22660;SDS011;11497;52.222;21.246;2023-06-26T06:30:18;11.43;;;8.55;;
22660;SDS011;11497;52.222;21.246;2023-06-26T06:33:06;12.05;;;8.57;;
22660;SDS011;11497;52.222;21.246;2023-06-26T06:35:34;10.82;;;7.85;;
22660;SDS011;11497;52.222;21.246;2023-06-26T06:38:02;31.02;;;10.40;;
22660;SDS011;11497;52.222;21.246;2023-06-26T06:40:30;12.45;;;8.02;;
22660;SDS011;11497;52.222;21.246;2023-06-26T06:42:57;10.18;;;8.15;;
22660;SDS011;11497;52.222;21.246;2023-06-26T06:45:25;10.68;;;7.90;;
22660;SDS011;11497;52.222;21.246;2023-06-26T06:47:53;8.18;;;7.30;;
22660;SDS011;11497;52.222;21.246;2023-06-26T06:50:21;9.30;;;7.55;;
22660;SDS011;11497;52.222;21.246;2023-06-26T06:52:49;12.13;;;7.30;;
22660;SDS011;11497;52.222;21.246;2023-06-26T06:55:17;10.77;;;7.57;;
22660;SDS011;11497;52.222;21.246;2023-06-26T06:57:44;10.98;;;8.07;;
22660;SDS011;11497;52.222;21.246;2023-06-26T07:00:14;8.60;;;7.40;;
22660;SDS011;11497;52.222;21.246;2023-06-26T07:02:43;13.40;;;8.18;;
22660;SDS011;11497;52.222;21.246;2023-06-26T07:05:12;9.05;;;7.03;;
22660;SDS011;11497;52.222;21.246;2023-06-26T07:07:41;13.25;;;7.35;;
22660;SDS011;11497;52.222;21.246;2023-06-26T07:10:11;9.48;;;7.03;;
22660;SDS011;11497;52.222;21.246;2023-06-26T07:12:40;13.68;;;7.35;;
22660;SDS011;11497;52.222;21.246;2023-06-26T07:15:08;7.70;;;6.45;;
22660;SDS011;11497;52.222;21.246;2023-06-26T07:17:36;8.50;;;5.93;;
22660;SDS011;11497;52.222;21.246;2023-06-26T07:20:07;8.30;;;6.05;;
22660;SDS011;11497;52.222;21.246;2023-06-26T07:22:37;6.93;;;6.13;;
22660;SDS011;11497;52.222;21.246;2023-06-26T07:25:06;6.53;;;5.00;;
22660;SDS011;11497;52.222;21.246;2023-06-26T07:27:37;6.63;;;5.20;;
22660;SDS011;11497;52.222;21.246;2023-06-26T07:30:07;6.95;;;5.75;;
22660;SDS011;11497;52.222;21.246;2023-06-26T07:32:35;10.85;;;5.75;;
22660;SDS011;11497;52.222;21.246;2023-06-26T07:35:04;8.85;;;5.20;;
22660;SDS011;11497;52.222;21.246;2023-06-26T07:37:32;8.07;;;5.18;;
22660;SDS011;11497;52.222;21.246;2023-06-26T07:40:00;195.90;;;15.20;;
22660;SDS011;11497;52.222;21.246;2023-06-26T07:42:28;15.15;;;5.53;;
22660;SDS011;11497;52.222;21.246;2023-06-26T07:44:57;20.58;;;5.65;;
22660;SDS011;11497;52.222;21.246;2023-06-26T07:47:24;6.82;;;5.25;;
22660;SDS011;11497;52.222;21.246;2023-06-26T07:49:53;15.32;;;6.13;;
22660;SDS011;11497;52.222;21.246;2023-06-26T07:52:20;10.57;;;4.90;;
22660;SDS011;11497;52.222;21.246;2023-06-26T07:54:49;6.55;;;5.00;;
22660;SDS011;11497;52.222;21.246;2023-06-26T07:57:16;5.35;;;4.85;;
22660;SDS011;11497;52.222;21.246;2023-06-26T07:59:45;6.45;;;5.18;;
22660;SDS011;11497;52.222;21.246;2023-06-26T08:02:12;5.40;;;4.65;;
22660;SDS011;11497;52.222;21.246;2023-06-26T08:04:40;7.07;;;4.90;;
22660;SDS011;11497;52.222;21.246;2023-06-26T08:07:08;9.15;;;4.95;;
22660;SDS011;11497;52.222;21.246;2023-06-26T08:09:36;6.38;;;4.70;;
22660;SDS011;11497;52.222;21.246;2023-06-26T08:12:04;5.28;;;4.35;;
22660;SDS011;11497;52.222;21.246;2023-06-26T08:14:35;5.82;;;4.60;;
22660;SDS011;11497;52.222;21.246;2023-06-26T08:17:03;9.07;;;5.00;;
22660;SDS011;11497;52.222;21.246;2023-06-26T08:19:31;9.05;;;5.32;;
22660;SDS011;11497;52.222;21.246;2023-06-26T08:21:58;7.55;;;4.80;;
22660;SDS011;11497;52.222;21.246;2023-06-26T08:24:26;6.10;;;4.93;;
22660;SDS011;11497;52.222;21.246;2023-06-26T08:26:54;6.55;;;4.93;;
22660;SDS011;11497;52.222;21.246;2023-06-26T08:29:22;8.55;;;5.15;;
22660;SDS011;11497;52.222;21.246;2023-06-26T08:31:50;8.27;;;5.00;;
22660;SDS011;11497;52.222;21.246;2023-06-26T08:34:18;7.97;;;5.40;;
22660;SDS011;11497;52.222;21.246;2023-06-26T08:36:45;6.90;;;5.47;;
22660;SDS011;11497;52.222;21.246;2023-06-26T08:39:13;7.97;;;4.90;;
22660;SDS011;11497;52.222;21.246;2023-06-26T08:41:41;9.88;;;5.03;;
22660;SDS011;11497;52.222;21.246;2023-06-26T08:44:09;8.13;;;4.75;;
22660;SDS011;11497;52.222;21.246;2023-06-26T08:46:37;7.50;;;4.20;;
22660;SDS011;11497;52.222;21.246;2023-06-26T08:49:25;16.52;;;4.63;;
22660;SDS011;11497;52.222;21.246;2023-06-26T08:52:04;7.60;;;4.90;;
22660;SDS011;11497;52.222;21.246;2023-06-26T08:54:45;9.68;;;4.68;;
22660;SDS011;11497;52.222;21.246;2023-06-26T08:57:17;11.40;;;5.20;;
22660;SDS011;11497;52.222;21.246;2023-06-26T08:59:47;7.07;;;4.75;;
22660;SDS011;11497;52.222;21.246;2023-06-26T09:02:16;6.47;;;4.75;;
22660;SDS011;11497;52.222;21.246;2023-06-26T09:04:44;7.95;;;4.30;;
22660;SDS011;11497;52.222;21.246;2023-06-26T09:07:12;8.38;;;4.45;;
22660;SDS011;11497;52.222;21.246;2023-06-26T09:09:41;6.20;;;4.63;;
22660;SDS011;11497;52.222;21.246;2023-06-26T09:12:10;8.60;;;4.65;;
22660;SDS011;11497;52.222;21.246;2023-06-26T09:14:40;7.13;;;5.10;;
22660;SDS011;11497;52.222;21.246;2023-06-26T09:17:08;8.20;;;4.97;;
22660;SDS011;11497;52.222;21.246;2023-06-26T09:19:37;7.05;;;5.10;;
22660;SDS011;11497;52.222;21.246;2023-06-26T09:22:10;7.55;;;5.50;;
22660;SDS011;11497;52.222;21.246;2023-06-26T09:24:40;7.45;;;5.30;;
22660;SDS011;11497;52.222;21.246;2023-06-26T09:27:09;9.00;;;5.20;;
22660;SDS011;11497;52.222;21.246;2023-06-26T09:29:38;6.90;;;5.00;;
22660;SDS011;11497;52.222;21.246;2023-06-26T09:32:07;8.52;;;5.13;;
22660;SDS011;11497;52.222;21.246;2023-06-26T09:34:36;8.07;;;5.22;;
22660;SDS011;11497;52.222;21.246;2023-06-26T09:37:07;7.10;;;4.63;;
22660;SDS011;11497;52.222;21.246;2023-06-26T09:39:38;7.38;;;4.72;;
22660;SDS011;11497;52.222;21.246;2023-06-26T09:42:05;7.47;;;4.78;;
22660;SDS011;11497;52.222;21.246;2023-06-26T09:44:34;7.03;;;4.78;;
22660;SDS011;11497;52.222;21.246;2023-06-26T09:47:02;6.25;;;4.28;;
22660;SDS011;11497;52.222;21.246;2023-06-26T09:49:31;10.65;;;4.78;;
22660;SDS011;11497;52.222;21.246;2023-06-26T09:51:59;7.45;;;4.53;;
22660;SDS011;11497;52.222;21.246;2023-06-26T09:54:29;5.63;;;3.97;;
22660;SDS011;11497;52.222;21.246;2023-06-26T09:57:09;7.88;;;4.40;;
22660;SDS011;11497;52.222;21.246;2023-06-26T09:59:37;7.82;;;4.90;;
22660;SDS011;11497;52.222;21.246;2023-06-26T10:02:07;6.80;;;4.20;;
22660;SDS011;11497;52.222;21.246;2023-06-26T10:04:35;6.00;;;4.50;;
22660;SDS011;11497;52.222;21.246;2023-06-26T10:07:05;6.03;;;4.40;;
22660;SDS011;11497;52.222;21.246;2023-06-26T10:09:44;5.28;;;4.43;;
22660;SDS011;11497;52.222;21.246;2023-06-26T10:12:19;7.13;;;4.90;;
22660;SDS011;11497;52.222;21.246;2023-06-26T10:14:55;5.10;;;4.40;;
22660;SDS011;11497;52.222;21.246;2023-06-26T10:17:25;12.63;;;5.72;;
22660;SDS011;11497;52.222;21.246;2023-06-26T10:19:57;8.13;;;5.38;;
22660;SDS011;11497;52.222;21.246;2023-06-26T10:22:32;7.03;;;4.53;;
22660;SDS011;11497;52.222;21.246;2023-06-26T10:25:04;6.88;;;4.32;;
22660;SDS011;11497;52.222;21.246;2023-06-26T10:27:36;8.60;;;5.13;;
22660;SDS011;11497;52.222;21.246;2023-06-26T10:30:11;9.35;;;5.03;;
22660;SDS011;11497;52.222;21.246;2023-06-26T10:32:42;4.80;;;4.30;;
22660;SDS011;11497;52.222;21.246;2023-06-26T10:35:12;5.53;;;4.40;;
22660;SDS011;11497;52.222;21.246;2023-06-26T10:37:47;7.93;;;4.60;;
22660;SDS011;11497;52.222;21.246;2023-06-26T10:40:24;5.22;;;4.65;;
22660;SDS011;11497;52.222;21.246;2023-06-26T10:43:06;7.57;;;4.80;;
22660;SDS011;11497;52.222;21.246;2023-06-26T10:45:35;9.52;;;5.10;;
22660;SDS011;11497;52.222;21.246;2023-06-26T10:48:03;5.80;;;4.38;;
22660;SDS011;11497;52.222;21.246;2023-06-26T10:50:32;10.00;;;4.95;;
22660;SDS011;11497;52.222;21.246;2023-06-26T10:53:11;7.78;;;4.82;;
22660;SDS011;11497;52.222;21.246;2023-06-26T10:56:03;7.35;;;4.50;;
22660;SDS011;11497;52.222;21.246;2023-06-26T10:58:34;8.23;;;4.60;;
22660;SDS011;11497;52.222;21.246;2023-06-26T11:04:08;6.65;;;4.70;;
22660;SDS011;11497;52.222;21.246;2023-06-26T11:06:38;10.75;;;7.75;;
22660;SDS011;11497;52.222;21.246;2023-06-26T11:09:10;7.40;;;5.28;;
22660;SDS011;11497;52.222;21.246;2023-06-26T11:11:54;6.18;;;4.50;;
22660;SDS011;11497;52.222;21.246;2023-06-26T11:14:28;7.75;;;4.63;;
22660;SDS011;11497;52.222;21.246;2023-06-26T11:16:58;8.57;;;5.10;;
22660;SDS011;11497;52.222;21.246;2023-06-26T11:19:28;6.05;;;4.90;;
22660;SDS011;11497;52.222;21.246;2023-06-26T11:22:01;8.60;;;4.32;;
22660;SDS011;11497;52.222;21.246;2023-06-26T11:26:59;7.78;;;4.50;;
22660;SDS011;11497;52.222;21.246;2023-06-26T11:29:29;10.07;;;4.30;;
22660;SDS011;11497;52.222;21.246;2023-06-26T11:31:58;4.72;;;3.70;;
22660;SDS011;11497;52.222;21.246;2023-06-26T11:34:30;5.40;;;3.63;;
22660;SDS011;11497;52.222;21.246;2023-06-26T11:36:59;5.88;;;4.22;;
22660;SDS011;11497;52.222;21.246;2023-06-26T11:39:28;9.02;;;4.28;;
22660;SDS011;11497;52.222;21.246;2023-06-26T11:41:56;6.57;;;4.47;;
22660;SDS011;11497;52.222;21.246;2023-06-26T11:44:25;10.38;;;4.93;;
22660;SDS011;11497;52.222;21.246;2023-06-26T11:46:57;11.35;;;5.18;;
22660;SDS011;11497;52.222;21.246;2023-06-26T11:49:25;5.28;;;4.43;;
22660;SDS011;11497;52.222;21.246;2023-06-26T11:51:54;6.00;;;3.65;;
22660;SDS011;11497;52.222;21.246;2023-06-26T11:54:23;8.68;;;4.03;;
22660;SDS011;11497;52.222;21.246;2023-06-26T11:56:53;10.95;;;4.32;;
22660;SDS011;11497;52.222;21.246;2023-06-26T11:59:23;6.25;;;4.00;;
22660;SDS011;11497;52.222;21.246;2023-06-26T12:01:58;8.18;;;5.93;;
22660;SDS011;11497;52.222;21.246;2023-06-26T12:04:26;9.35;;;4.45;;
22660;SDS011;11497;52.222;21.246;2023-06-26T12:06:54;9.63;;;4.85;;
22660;SDS011;11497;52.222;21.246;2023-06-26T12:09:26;12.13;;;4.20;;
22660;SDS011;11497;52.222;21.246;2023-06-26T12:11:55;7.07;;;4.32;;
22660;SDS011;11497;52.222;21.246;2023-06-26T12:14:24;9.63;;;3.88;;
22660;SDS011;11497;52.222;21.246;2023-06-26T12:16:55;6.85;;;4.30;;
22660;SDS011;11497;52.222;21.246;2023-06-26T12:19:30;6.43;;;4.20;;
22660;SDS011;11497;52.222;21.246;2023-06-26T12:21:58;8.65;;;4.45;;
22660;SDS011;11497;52.222;21.246;2023-06-26T12:24:32;6.65;;;3.90;;
22660;SDS011;11497;52.222;21.246;2023-06-26T12:27:00;79.95;;;8.07;;
22660;SDS011;11497;52.222;21.246;2023-06-26T12:29:31;9.13;;;3.95;;
22660;SDS011;11497;52.222;21.246;2023-06-26T12:32:00;9.48;;;4.40;;
22660;SDS011;11497;52.222;21.246;2023-06-26T12:34:30;5.78;;;4.00;;
22660;SDS011;11497;52.222;21.246;2023-06-26T12:37:04;4.15;;;3.72;;
22660;SDS011;11497;52.222;21.246;2023-06-26T12:39:45;7.88;;;3.72;;
22660;SDS011;11497;52.222;21.246;2023-06-26T12:42:24;4.97;;;3.90;;
22660;SDS011;11497;52.222;21.246;2023-06-26T12:44:54;5.80;;;3.78;;
22660;SDS011;11497;52.222;21.246;2023-06-26T12:47:26;5.15;;;3.75;;
22660;SDS011;11497;52.222;21.246;2023-06-26T12:49:55;5.38;;;3.28;;
22660;SDS011;11497;52.222;21.246;2023-06-26T12:52:24;4.32;;;3.53;;
22660;SDS011;11497;52.222;21.246;2023-06-26T12:54:53;4.85;;;3.50;;
22660;SDS011;11497;52.222;21.246;2023-06-26T12:57:23;5.85;;;3.30;;
22660;SDS011;11497;52.222;21.246;2023-06-26T12:59:52;4.60;;;3.40;;
22660;SDS011;11497;52.222;21.246;2023-06-26T13:02:20;5.00;;;2.95;;
22660;SDS011;11497;52.222;21.246;2023-06-26T13:04:48;5.72;;;3.53;;
22660;SDS011;11497;52.222;21.246;2023-06-26T13:07:16;5.63;;;3.72;;
22660;SDS011;11497;52.222;21.246;2023-06-26T13:09:45;6.10;;;3.95;;
22660;SDS011;11497;52.222;21.246;2023-06-26T13:12:15;7.15;;;3.75;;
22660;SDS011;11497;52.222;21.246;2023-06-26T13:14:43;8.27;;;3.88;;
22660;SDS011;11497;52.222;21.246;2023-06-26T13:17:11;5.72;;;3.60;;
22660;SDS011;11497;52.222;21.246;2023-06-26T13:19:39;5.22;;;3.80;;
22660;SDS011;11497;52.222;21.246;2023-06-26T13:22:07;8.52;;;6.53;;
22660;SDS011;11497;52.222;21.246;2023-06-26T13:24:35;6.32;;;4.20;;
22660;SDS011;11497;52.222;21.246;2023-06-26T13:27:03;4.90;;;3.80;;
22660;SDS011;11497;52.222;21.246;2023-06-26T13:29:31;8.02;;;4.10;;
22660;SDS011;11497;52.222;21.246;2023-06-26T13:31:59;7.78;;;3.58;;
22660;SDS011;11497;52.222;21.246;2023-06-26T13:34:28;3.80;;;3.45;;
22660;SDS011;11497;52.222;21.246;2023-06-26T13:36:56;12.38;;;4.38;;
22660;SDS011;11497;52.222;21.246;2023-06-26T13:39:27;8.55;;;4.10;;
22660;SDS011;11497;52.222;21.246;2023-06-26T13:41:55;6.10;;;4.35;;
22660;SDS011;11497;52.222;21.246;2023-06-26T13:44:24;8.65;;;4.97;;
22660;SDS011;11497;52.222;21.246;2023-06-26T13:47:07;6.97;;;4.00;;
22660;SDS011;11497;52.222;21.246;2023-06-26T13:49:36;15.52;;;11.50;;
22660;SDS011;11497;52.222;21.246;2023-06-26T13:52:04;10.85;;;6.00;;
22660;SDS011;11497;52.222;21.246;2023-06-26T13:54:35;4.35;;;3.70;;
22660;SDS011;11497;52.222;21.246;2023-06-26T13:57:06;5.28;;;3.92;;
22660;SDS011;11497;52.222;21.246;2023-06-26T13:59:36;4.88;;;3.90;;
22660;SDS011;11497;52.222;21.246;2023-06-26T14:02:06;7.78;;;3.97;;
22660;SDS011;11497;52.222;21.246;2023-06-26T14:04:35;6.82;;;3.92;;
22660;SDS011;11497;52.222;21.246;2023-06-26T14:07:04;13.48;;;4.80;;
22660;SDS011;11497;52.222;21.246;2023-06-26T14:09:33;7.88;;;4.50;;
22660;SDS011;11497;52.222;21.246;2023-06-26T14:12:00;9.48;;;4.53;;
22660;SDS011;11497;52.222;21.246;2023-06-26T14:14:28;8.98;;;4.93;;
22660;SDS011;11497;52.222;21.246;2023-06-26T14:16:56;6.65;;;4.47;;
22660;SDS011;11497;52.222;21.246;2023-06-26T14:19:26;9.18;;;4.88;;
22660;SDS011;11497;52.222;21.246;2023-06-26T14:21:53;13.73;;;5.15;;
22660;SDS011;11497;52.222;21.246;2023-06-26T14:24:21;9.27;;;4.47;;
22660;SDS011;11497;52.222;21.246;2023-06-26T14:26:49;6.15;;;4.65;;
22660;SDS011;11497;52.222;21.246;2023-06-26T14:29:17;9.80;;;4.70;;
22660;SDS011;11497;52.222;21.246;2023-06-26T14:31:46;6.55;;;4.10;;
22660;SDS011;11497;52.222;21.246;2023-06-26T14:34:17;4.80;;;4.28;;
22660;SDS011;11497;52.222;21.246;2023-06-26T14:36:45;8.98;;;4.40;;
22660;SDS011;11497;52.222;21.246;2023-06-26T14:39:13;7.22;;;4.30;;
22660;SDS011;11497;52.222;21.246;2023-06-26T14:41:41;12.35;;;4.50;;
22660;SDS011;11497;52.222;21.246;2023-06-26T14:44:10;7.25;;;4.15;;
22660;SDS011;11497;52.222;21.246;2023-06-26T14:46:38;5.63;;;4.00;;
22660;SDS011;11497;52.222;21.246;2023-06-26T14:49:06;13.27;;;4.00;;
22660;SDS011;11497;52.222;21.246;2023-06-26T14:51:34;7.35;;;4.47;;
22660;SDS011;11497;52.222;21.246;2023-06-26T14:54:02;8.23;;;4.55;;